createdAt,value
2023-11-20T00:01:25.290Z,11.20
2023-11-20T00:03:52.566Z,11.20
2023-11-20T00:06:19.464Z,11.20
2023-11-20T00:08:46.929Z,11.20
2023-11-20T00:11:17.557Z,11.20
2023-11-20T00:13:44.682Z,11.20
2023-11-20T00:16:13.047Z,11.20
2023-11-20T00:18:40.483Z,11.20
2023-11-20T00:21:07.293Z,11.20
2023-11-20T00:23:34.035Z,11.20
2023-11-20T00:26:00.784Z,11.20
2023-11-20T00:28:27.566Z,11.20
2023-11-20T00:30:54.349Z,11.20
2023-11-20T00:33:21.160Z,11.20
2023-11-20T00:35:47.965Z,11.10
2023-11-20T00:38:14.900Z,11.10
2023-11-20T00:40:42.488Z,11.00
2023-11-20T00:43:09.272Z,10.90
2023-11-20T00:45:36.575Z,10.90
2023-11-20T00:48:03.467Z,10.90
2023-11-20T00:50:30.206Z,10.80
2023-11-20T00:52:57.060Z,10.80
2023-11-20T00:55:23.816Z,10.80
2023-11-20T00:57:50.646Z,10.70
2023-11-20T01:00:19.645Z,10.70
2023-11-20T01:02:46.913Z,10.70
2023-11-20T01:05:13.950Z,10.70
2023-11-20T01:07:40.705Z,10.70
2023-11-20T01:10:08.275Z,10.60
2023-11-20T01:12:35.186Z,10.50
2023-11-20T01:15:02.559Z,10.50
2023-11-20T01:17:30.138Z,10.50
2023-11-20T01:19:56.974Z,10.50
2023-11-20T01:22:24.036Z,10.50
2023-11-20T01:24:51.276Z,10.50
2023-11-20T01:27:18.398Z,10.40
2023-11-20T01:29:45.256Z,10.40
2023-11-20T01:32:12.008Z,10.30
2023-11-20T01:34:38.760Z,10.40
2023-11-20T01:37:05.803Z,10.30
2023-11-20T01:39:32.751Z,10.30
2023-11-20T01:41:59.481Z,10.30
2023-11-20T01:44:26.699Z,10.30
2023-11-20T01:46:54.023Z,10.30
2023-11-20T01:49:21.436Z,10.30
2023-11-20T01:51:48.927Z,10.20
2023-11-20T01:54:15.930Z,10.20
2023-11-20T01:56:42.805Z,10.20
2023-11-20T01:59:09.583Z,10.10
2023-11-20T02:01:36.429Z,10.10
2023-11-20T02:04:04.476Z,10.10
2023-11-20T02:06:31.547Z,10.10
2023-11-20T02:08:58.347Z,10.00
2023-11-20T02:11:25.201Z,10.00
2023-11-20T02:13:52.054Z,9.90
2023-11-20T02:16:18.803Z,9.90
2023-11-20T02:18:45.571Z,9.90
2023-11-20T02:21:12.366Z,9.80
2023-11-20T02:23:39.074Z,9.80
2023-11-20T02:26:21.140Z,9.80
2023-11-20T02:29:04.411Z,9.70
2023-11-20T02:31:32.209Z,9.70
2023-11-20T02:34:01.436Z,9.70
2023-11-20T02:36:28.263Z,9.70
2023-11-20T02:38:55.287Z,9.70
2023-11-20T02:41:22.054Z,9.60
2023-11-20T02:43:48.859Z,9.60
2023-11-20T02:46:15.667Z,9.60
2023-11-20T02:48:42.561Z,9.50
2023-11-20T02:51:09.404Z,9.50
2023-11-20T02:53:36.295Z,9.50
2023-11-20T02:56:03.925Z,9.50
2023-11-20T02:58:30.671Z,9.40
2023-11-20T03:00:57.456Z,9.40
2023-11-20T03:03:24.379Z,9.40
2023-11-20T03:05:51.249Z,9.40
2023-11-20T03:08:18.053Z,9.30
2023-11-20T03:10:44.893Z,9.40
2023-11-20T03:13:12.403Z,9.40
2023-11-20T03:15:39.773Z,9.40
2023-11-20T03:18:06.716Z,9.40
2023-11-20T03:20:33.642Z,9.30
2023-11-20T03:23:00.477Z,9.40
2023-11-20T03:25:27.329Z,9.30
2023-11-20T03:27:56.249Z,9.40
2023-11-20T03:30:24.142Z,9.40
2023-11-20T03:32:51.043Z,9.40
2023-11-20T03:35:17.830Z,9.40
2023-11-20T03:37:44.720Z,9.40
2023-11-20T03:40:12.843Z,9.40
2023-11-20T03:42:39.771Z,9.40
2023-11-20T03:45:07.072Z,9.30
2023-11-20T03:47:33.889Z,9.30
2023-11-20T03:50:00.895Z,9.20
2023-11-20T03:52:27.755Z,9.20
2023-11-20T03:54:54.608Z,9.20
2023-11-20T03:57:21.718Z,9.10
2023-11-20T03:59:48.768Z,9.10
2023-11-20T04:02:17.647Z,9.00
2023-11-20T04:04:45.676Z,9.00
2023-11-20T04:07:12.953Z,9.00
2023-11-20T04:09:39.868Z,8.90
2023-11-20T04:12:07.215Z,8.90
2023-11-20T04:14:34.031Z,8.90
2023-11-20T04:17:00.887Z,8.90
2023-11-20T04:19:28.222Z,8.80
2023-11-20T04:21:55.371Z,8.80
2023-11-20T04:24:22.696Z,8.80
2023-11-20T04:26:49.598Z,8.70
2023-11-20T04:29:16.522Z,8.70
2023-11-20T04:31:43.378Z,8.70
2023-11-20T04:34:10.591Z,8.70
2023-11-20T04:36:37.581Z,8.70
2023-11-20T04:39:04.727Z,8.60
2023-11-20T04:41:32.532Z,8.60
2023-11-20T04:43:59.400Z,8.60
2023-11-20T04:46:26.667Z,8.60
2023-11-20T04:48:53.664Z,8.60
2023-11-20T04:51:23.683Z,8.60
2023-11-20T04:53:50.797Z,8.60
2023-11-20T04:56:17.643Z,8.60
2023-11-20T04:58:47.492Z,8.60
2023-11-20T05:01:15.121Z,8.60
2023-11-20T05:03:46.408Z,8.60
2023-11-20T05:06:14.826Z,8.50
2023-11-20T05:08:41.706Z,8.50
2023-11-20T05:11:08.443Z,8.50
2023-11-20T05:13:35.568Z,8.50
2023-11-20T05:16:02.525Z,8.50
2023-11-20T05:18:29.363Z,8.50
2023-11-20T05:20:56.123Z,8.50
2023-11-20T05:23:23.065Z,8.50
2023-11-20T05:25:49.843Z,8.50
2023-11-20T05:28:16.745Z,8.50
2023-11-20T05:30:44.020Z,8.50
2023-11-20T05:33:12.519Z,8.50
2023-11-20T05:35:40.129Z,8.50
2023-11-20T05:38:07.122Z,8.50
2023-11-20T05:40:34.169Z,8.50
2023-11-20T05:43:01.501Z,8.50
2023-11-20T05:45:28.515Z,8.50
2023-11-20T05:47:55.549Z,8.50
2023-11-20T05:50:22.496Z,8.50
2023-11-20T05:52:49.327Z,8.40
2023-11-20T05:55:16.219Z,8.40
2023-11-20T05:57:43.016Z,8.40
2023-11-20T06:00:11.519Z,8.40
2023-11-20T06:02:38.723Z,8.50
2023-11-20T06:05:08.269Z,8.50
2023-11-20T06:07:36.890Z,8.50
2023-11-20T06:10:04.155Z,8.60
2023-11-20T06:12:31.233Z,8.60
2023-11-20T06:14:58.033Z,8.60
2023-11-20T06:17:25.536Z,8.60
2023-11-20T06:19:52.704Z,8.60
2023-11-20T06:22:19.672Z,8.70
2023-11-20T06:24:46.531Z,8.70
2023-11-20T06:27:13.424Z,8.80
2023-11-20T06:29:42.982Z,8.80
2023-11-20T06:32:10.991Z,8.80
2023-11-20T06:34:37.813Z,8.90
2023-11-20T06:37:04.782Z,8.90
2023-11-20T06:39:31.656Z,8.90
2023-11-20T06:41:59.005Z,9.00
2023-11-20T06:44:25.835Z,9.00
2023-11-20T06:46:53.644Z,9.10
2023-11-20T06:49:20.648Z,9.10
2023-11-20T06:51:47.608Z,9.20
2023-11-20T06:54:14.478Z,9.30
2023-11-20T06:56:41.361Z,9.30
2023-11-20T06:59:08.321Z,9.30
2023-11-20T07:01:35.301Z,9.30
2023-11-20T07:04:02.653Z,9.40
2023-11-20T07:06:29.553Z,9.40
2023-11-20T07:08:56.501Z,9.50
2023-11-20T07:11:23.509Z,9.50
2023-11-20T07:13:50.909Z,9.60
2023-11-20T07:16:17.877Z,9.60
2023-11-20T07:18:44.720Z,9.60
2023-11-20T07:21:11.589Z,9.60
2023-11-20T07:23:38.470Z,9.70
2023-11-20T07:26:05.420Z,9.70
2023-11-20T07:28:32.316Z,9.70
2023-11-20T07:30:59.246Z,9.70
2023-11-20T07:33:26.147Z,9.70
2023-11-20T07:35:53.255Z,9.70
2023-11-20T07:38:20.064Z,9.70
2023-11-20T07:40:47.328Z,9.70
2023-11-20T07:43:14.296Z,9.70
2023-11-20T07:45:41.931Z,9.70
2023-11-20T07:48:09.141Z,9.70
2023-11-20T07:50:36.321Z,9.70
2023-11-20T07:53:05.454Z,9.70
2023-11-20T07:55:32.796Z,9.80
2023-11-20T07:58:00.061Z,9.80
2023-11-20T08:00:27.275Z,9.80
2023-11-20T08:02:54.819Z,9.80
2023-11-20T08:05:22.327Z,9.80
2023-11-20T08:07:49.613Z,9.90
2023-11-20T08:10:19.395Z,9.90
2023-11-20T08:12:54.945Z,9.90
2023-11-20T08:15:21.765Z,9.90
2023-11-20T08:17:48.780Z,9.90
2023-11-20T08:20:17.982Z,9.90
2023-11-20T08:22:44.815Z,9.90
2023-11-20T08:25:11.873Z,9.90
2023-11-20T08:27:43.910Z,9.90
2023-11-20T08:30:11.888Z,9.90
2023-11-20T08:32:39.293Z,9.90
2023-11-20T08:35:07.138Z,9.90
2023-11-20T08:37:33.971Z,9.90
2023-11-20T08:40:00.953Z,9.90
2023-11-20T08:42:27.813Z,9.90
2023-11-20T08:44:54.726Z,9.90
2023-11-20T08:47:21.707Z,9.80
2023-11-20T08:49:48.934Z,9.80
2023-11-20T08:52:16.383Z,9.80
2023-11-20T08:54:44.560Z,9.80
2023-11-20T08:57:11.359Z,9.80
2023-11-20T08:59:38.303Z,9.90
2023-11-20T09:02:05.369Z,9.90
2023-11-20T09:04:32.253Z,10.00
2023-11-20T09:06:59.193Z,10.00
2023-11-20T09:09:26.424Z,10.00
2023-11-20T09:11:56.219Z,10.10
2023-11-20T09:14:23.181Z,10.20
2023-11-20T09:16:50.129Z,10.20
2023-11-20T09:19:17.257Z,10.20
2023-11-20T09:21:44.056Z,10.20
2023-11-20T09:24:10.960Z,10.30
2023-11-20T09:26:37.997Z,10.30
2023-11-20T09:29:07.894Z,10.40
2023-11-20T09:31:37.765Z,10.50
2023-11-20T09:34:05.294Z,10.50
2023-11-20T09:36:32.522Z,10.60
2023-11-20T09:38:59.515Z,10.60
2023-11-20T09:41:27.585Z,10.60
2023-11-20T09:43:54.499Z,10.70
2023-11-20T09:46:21.413Z,10.70
2023-11-20T09:48:49.296Z,10.70
2023-11-20T09:51:17.377Z,10.80
2023-11-20T09:53:44.207Z,10.90
2023-11-20T09:56:13.118Z,11.10
2023-11-20T09:58:42.145Z,11.10
2023-11-20T10:01:11.874Z,11.20
2023-11-20T10:03:43.381Z,11.20
2023-11-20T10:06:12.507Z,11.30
2023-11-20T10:08:42.441Z,11.30
2023-11-20T10:11:09.537Z,11.30
2023-11-20T10:13:36.574Z,11.40
2023-11-20T10:16:05.333Z,11.40
2023-11-20T10:18:33.763Z,11.40
2023-11-20T10:21:02.665Z,11.40
2023-11-20T10:23:30.182Z,11.40
2023-11-20T10:25:57.795Z,11.40
2023-11-20T10:28:24.754Z,11.40
2023-11-20T10:30:51.602Z,11.40
2023-11-20T10:33:22.343Z,11.50
2023-11-20T10:35:50.084Z,11.50
2023-11-20T10:38:17.153Z,11.40
2023-11-20T10:40:49.571Z,11.40
2023-11-20T10:43:16.937Z,11.40
2023-11-20T10:45:44.844Z,11.40
2023-11-20T10:48:12.710Z,11.40
2023-11-20T10:50:40.207Z,11.40
2023-11-20T10:53:07.791Z,11.40
2023-11-20T10:55:51.891Z,11.50
2023-11-20T10:58:18.928Z,11.60
2023-11-20T11:00:47.181Z,11.60
2023-11-20T11:03:18.143Z,11.70
2023-11-20T11:05:47.723Z,11.80
2023-11-20T11:08:15.386Z,11.80
2023-11-20T11:10:43.338Z,11.90
2023-11-20T11:13:10.375Z,11.80
2023-11-20T11:15:38.144Z,11.80
2023-11-20T11:18:13.637Z,11.70
2023-11-20T11:20:53.966Z,11.70
2023-11-20T11:23:25.922Z,11.80
2023-11-20T11:26:18.842Z,11.90
2023-11-20T11:28:49.690Z,12.00
2023-11-20T11:31:18.961Z,12.10
2023-11-20T11:34:25.091Z,12.00
2023-11-20T11:37:20.405Z,12.00
2023-11-20T11:40:28.155Z,12.00
2023-11-20T11:42:58.003Z,12.00
2023-11-20T11:45:28.065Z,12.10
2023-11-20T11:47:54.926Z,12.20
2023-11-20T11:50:22.361Z,12.50
2023-11-20T11:52:50.052Z,12.60
2023-11-20T11:55:17.637Z,12.70
2023-11-20T11:57:44.745Z,12.60
2023-11-20T12:00:15.429Z,12.50
2023-11-20T12:03:03.439Z,12.50
2023-11-20T12:05:33.018Z,12.50
2023-11-20T12:08:02.774Z,12.50
2023-11-20T12:10:42.846Z,12.60
2023-11-20T12:13:13.726Z,12.70
2023-11-20T12:15:44.183Z,12.90
2023-11-20T12:18:29.569Z,13.00
2023-11-20T12:20:56.692Z,13.00
2023-11-20T12:23:36.663Z,13.00
2023-11-20T12:26:11.175Z,12.90
2023-11-20T12:28:39.477Z,12.80
2023-11-20T12:31:07.279Z,12.80
2023-11-20T12:33:34.736Z,12.70
2023-11-20T12:36:01.684Z,12.60
2023-11-20T12:38:34.272Z,12.50
2023-11-20T12:41:04.581Z,12.50
2023-11-20T12:43:34.739Z,12.50
2023-11-20T12:46:08.458Z,12.50
2023-11-20T12:48:37.823Z,12.50
2023-11-20T12:51:07.666Z,12.60
2023-11-20T12:53:35.871Z,12.70
2023-11-20T12:56:06.315Z,12.70
2023-11-20T12:58:33.704Z,12.60
2023-11-20T13:01:05.921Z,12.50
2023-11-20T13:03:36.364Z,12.40
2023-11-20T13:06:05.945Z,12.40
2023-11-20T13:08:34.512Z,12.40
2023-11-20T13:11:02.016Z,12.30
2023-11-20T13:13:29.556Z,12.30
2023-11-20T13:16:01.149Z,12.30
2023-11-20T13:18:29.910Z,12.40
2023-11-20T13:20:57.265Z,12.50
2023-11-20T13:23:25.435Z,12.60
2023-11-20T13:26:09.642Z,12.80
2023-11-20T13:28:37.330Z,12.80
2023-11-20T13:31:08.329Z,12.70
2023-11-20T13:33:36.772Z,12.70
2023-11-20T13:36:05.565Z,12.70
2023-11-20T13:38:36.136Z,12.70
2023-11-20T13:41:03.812Z,12.70
2023-11-20T13:43:31.134Z,12.70
2023-11-20T13:46:02.189Z,12.80
2023-11-20T13:48:31.960Z,12.90
2023-11-20T13:50:59.693Z,13.00
2023-11-20T13:53:27.572Z,13.00
2023-11-20T13:55:55.699Z,13.00
2023-11-20T13:58:25.467Z,13.10
2023-11-20T14:00:53.852Z,13.10
2023-11-20T14:03:21.547Z,13.00
2023-11-20T14:05:49.102Z,13.00
2023-11-20T14:08:16.610Z,12.90
2023-11-20T14:10:46.032Z,12.80
2023-11-20T14:13:13.148Z,12.80
2023-11-20T14:15:40.900Z,12.80
2023-11-20T14:18:09.797Z,12.90
2023-11-20T14:20:36.953Z,12.90
2023-11-20T14:23:04.426Z,12.90
2023-11-20T14:25:32.754Z,13.00
2023-11-20T14:27:59.762Z,12.90
2023-11-20T14:30:26.581Z,12.90
2023-11-20T14:32:53.386Z,12.80
2023-11-20T14:35:20.420Z,12.80
2023-11-20T14:37:47.522Z,12.80
2023-11-20T14:40:17.159Z,12.80
2023-11-20T14:42:48.767Z,12.80
2023-11-20T14:45:16.957Z,12.80
2023-11-20T14:47:45.150Z,12.80
2023-11-20T14:50:14.483Z,12.70
2023-11-20T14:52:42.635Z,12.70
2023-11-20T14:55:10.173Z,12.80
2023-11-20T14:57:37.678Z,12.70
2023-11-20T15:00:08.455Z,12.60
2023-11-20T15:02:35.688Z,12.50
2023-11-20T15:05:02.879Z,12.40
2023-11-20T15:07:29.971Z,12.30
2023-11-20T15:09:57.048Z,12.20
2023-11-20T15:12:23.819Z,12.20
2023-11-20T15:14:50.659Z,12.10
2023-11-20T15:17:17.827Z,12.10
2023-11-20T15:19:45.820Z,12.10
2023-11-20T15:22:13.390Z,12.10
2023-11-20T15:24:40.796Z,12.10
2023-11-20T15:27:07.804Z,12.10
2023-11-20T15:29:34.701Z,12.10
2023-11-20T15:32:02.788Z,12.00
2023-11-20T15:34:29.803Z,12.10
2023-11-20T15:36:56.828Z,12.00
2023-11-20T15:39:24.414Z,12.10
2023-11-20T15:41:52.069Z,12.00
2023-11-20T15:44:19.213Z,12.00
2023-11-20T15:46:52.218Z,12.00
2023-11-20T15:49:19.396Z,12.00
2023-11-20T15:51:48.399Z,12.00
2023-11-20T15:54:18.347Z,11.90
2023-11-20T15:56:53.728Z,11.90
2023-11-20T15:59:22.285Z,11.80
2023-11-20T16:01:50.196Z,11.80
2023-11-20T16:04:17.723Z,11.80
2023-11-20T16:06:44.860Z,11.80
2023-11-20T16:09:11.829Z,11.80
2023-11-20T16:11:38.919Z,11.80
2023-11-20T16:14:05.849Z,11.80
2023-11-20T16:16:33.253Z,11.70
2023-11-20T16:19:00.334Z,11.80
2023-11-20T16:21:27.429Z,11.80
2023-11-20T16:23:54.536Z,11.80
2023-11-20T16:26:21.400Z,11.80
2023-11-20T16:28:48.423Z,11.80
2023-11-20T16:31:15.505Z,11.80
2023-11-20T16:33:43.570Z,11.80
2023-11-20T16:36:11.672Z,11.80
2023-11-20T16:38:39.531Z,11.80
2023-11-20T16:41:06.745Z,11.80
2023-11-20T16:43:36.361Z,11.80
2023-11-20T16:46:04.971Z,11.80
2023-11-20T16:48:32.156Z,11.80
2023-11-20T16:50:59.566Z,11.80
2023-11-20T16:53:26.698Z,11.80
2023-11-20T16:55:53.812Z,11.80
2023-11-20T16:58:20.981Z,11.80
2023-11-20T17:00:49.370Z,11.80
2023-11-20T17:03:16.814Z,11.80
2023-11-20T17:05:46.800Z,11.80
2023-11-20T17:08:14.373Z,11.80
2023-11-20T17:10:43.565Z,11.80
2023-11-20T17:13:12.077Z,11.80
2023-11-20T17:15:42.724Z,11.70
2023-11-20T17:18:09.659Z,11.70
2023-11-20T17:20:38.597Z,11.50
2023-11-20T17:23:06.656Z,11.40
2023-11-20T17:25:33.650Z,11.30
2023-11-20T17:28:00.720Z,11.20
2023-11-20T17:30:28.544Z,11.00
2023-11-20T17:32:58.687Z,10.90
2023-11-20T17:35:27.210Z,10.80
2023-11-20T17:37:56.153Z,10.70
2023-11-20T17:40:25.407Z,10.70
2023-11-20T17:42:53.614Z,10.70
2023-11-20T17:45:20.942Z,10.70
2023-11-20T17:47:49.117Z,10.60
2023-11-20T17:50:17.886Z,10.60
2023-11-20T17:52:44.847Z,10.60
2023-11-20T17:55:13.328Z,10.60
2023-11-20T17:57:40.604Z,10.60
2023-11-20T18:00:12.120Z,10.60
2023-11-20T18:02:39.546Z,10.60
2023-11-20T18:05:11.522Z,10.60
2023-11-20T18:07:40.125Z,10.60
2023-11-20T18:10:12.890Z,10.60
2023-11-20T18:12:42.557Z,10.60
2023-11-20T18:15:13.729Z,10.60
2023-11-20T18:17:42.727Z,10.60
2023-11-20T18:20:11.287Z,10.60
2023-11-20T18:22:41.300Z,10.60
2023-11-20T18:25:09.942Z,10.60
2023-11-20T18:27:42.118Z,10.60
2023-11-20T18:30:12.490Z,10.60
2023-11-20T18:32:42.785Z,10.60
2023-11-20T18:35:10.215Z,10.60
2023-11-20T18:37:40.460Z,10.60
2023-11-20T18:40:10.558Z,10.60
2023-11-20T18:42:43.712Z,10.60
2023-11-20T18:45:15.591Z,10.60
2023-11-20T18:47:45.356Z,10.60
2023-11-20T18:50:13.315Z,10.60
2023-11-20T18:52:40.182Z,10.60
2023-11-20T18:55:08.268Z,10.70
2023-11-20T18:57:36.363Z,10.70
2023-11-20T19:00:07.534Z,10.60
2023-11-20T19:02:36.277Z,10.60
2023-11-20T19:05:05.477Z,10.70
2023-11-20T19:07:32.455Z,10.60
2023-11-20T19:10:01.848Z,10.60
2023-11-20T19:12:28.745Z,10.60
2023-11-20T19:14:57.761Z,10.60
2023-11-20T19:17:24.684Z,10.70
2023-11-20T19:19:51.543Z,10.70
2023-11-20T19:22:20.038Z,10.60
2023-11-20T19:24:50.146Z,10.70
2023-11-20T19:27:17.916Z,10.70
2023-11-20T19:29:44.685Z,10.70
2023-11-20T19:32:11.604Z,10.70
2023-11-20T19:34:38.394Z,10.70
2023-11-20T19:37:09.378Z,10.70
2023-11-20T19:39:36.270Z,10.70
2023-11-20T19:42:03.150Z,10.70
2023-11-20T19:44:30.061Z,10.70
2023-11-20T19:46:57.161Z,10.70
2023-11-20T19:49:24.263Z,10.70
2023-11-20T19:51:51.296Z,10.80
2023-11-20T19:54:18.480Z,10.80
2023-11-20T19:56:45.316Z,10.80
2023-11-20T19:59:15.228Z,10.80
2023-11-20T20:01:42.077Z,10.70
2023-11-20T20:04:09.121Z,10.80
2023-11-20T20:06:36.012Z,10.70
2023-11-20T20:09:04.729Z,10.70
2023-11-20T20:11:32.688Z,10.80
2023-11-20T20:13:59.527Z,10.70
2023-11-20T20:16:26.405Z,10.80
2023-11-20T20:18:54.378Z,10.80
2023-11-20T20:21:21.225Z,10.80
2023-11-20T20:23:52.339Z,10.80
2023-11-20T20:26:31.788Z,10.80
2023-11-20T20:29:04.466Z,10.80
2023-11-20T20:31:37.219Z,10.90
2023-11-20T20:34:06.890Z,10.90
2023-11-20T20:36:33.836Z,10.90
2023-11-20T20:39:12.767Z,10.90
2023-11-20T20:41:44.635Z,10.90
2023-11-20T20:44:22.426Z,10.90
2023-11-20T20:46:53.021Z,11.00
2023-11-20T20:49:20.374Z,11.00
2023-11-20T20:51:52.186Z,11.00
2023-11-20T20:54:20.239Z,11.00
2023-11-20T20:56:47.009Z,11.00
2023-11-20T20:59:14.961Z,11.00
2023-11-20T21:01:52.764Z,11.00
2023-11-20T21:04:20.788Z,11.00
2023-11-20T21:06:55.725Z,11.00
2023-11-20T21:09:25.399Z,11.00
2023-11-20T21:11:59.052Z,11.00
2023-11-20T21:14:27.694Z,11.00
2023-11-20T21:16:59.571Z,11.00
2023-11-20T21:19:40.573Z,11.00
2023-11-20T21:22:18.392Z,11.00
2023-11-20T21:24:52.072Z,11.10
2023-11-20T21:27:20.925Z,11.10
2023-11-20T21:29:47.797Z,11.10
2023-11-20T21:32:23.936Z,11.10
2023-11-20T21:34:58.083Z,11.10
2023-11-20T21:37:34.605Z,11.10
2023-11-20T21:40:05.974Z,11.10
2023-11-20T21:42:33.089Z,11.10
2023-11-20T21:45:00.580Z,11.10
2023-11-20T21:47:30.684Z,11.10
2023-11-20T21:50:06.523Z,11.00
2023-11-20T21:52:34.214Z,11.00
2023-11-20T21:55:07.067Z,11.00
2023-11-20T21:57:35.412Z,11.00
2023-11-20T22:00:05.258Z,11.00
2023-11-20T22:02:36.337Z,11.00
2023-11-20T22:05:07.423Z,11.00
2023-11-20T22:07:34.411Z,11.00
2023-11-20T22:10:02.377Z,11.00
2023-11-20T22:12:29.204Z,11.00
2023-11-20T22:14:58.733Z,11.00
2023-11-20T22:17:29.021Z,11.00
2023-11-20T22:19:57.022Z,11.00
2023-11-20T22:22:24.790Z,11.00
2023-11-20T22:24:52.825Z,11.00
2023-11-20T22:27:33.951Z,11.00
2023-11-20T22:30:01.778Z,11.00
2023-11-20T22:32:28.773Z,11.00
2023-11-20T22:35:10.154Z,11.00
2023-11-20T22:37:42.803Z,11.00
2023-11-20T22:40:10.557Z,11.00
2023-11-20T22:42:38.533Z,11.00
2023-11-20T22:45:12.609Z,11.00
2023-11-20T22:47:40.641Z,11.00
2023-11-20T22:50:18.658Z,11.00
2023-11-20T22:52:51.317Z,11.00
2023-11-20T22:55:18.370Z,10.90
2023-11-20T22:57:45.237Z,11.00
2023-11-20T23:00:24.801Z,11.00
2023-11-20T23:02:51.996Z,11.00
2023-11-20T23:05:20.555Z,11.00
2023-11-20T23:07:50.602Z,11.00
2023-11-20T23:10:21.641Z,11.00
2023-11-20T23:12:48.492Z,11.00
2023-11-20T23:15:16.349Z,11.00
2023-11-20T23:17:44.229Z,11.00
2023-11-20T23:20:19.533Z,11.00
2023-11-20T23:22:54.301Z,11.00
2023-11-20T23:25:22.294Z,11.10
2023-11-20T23:27:52.279Z,11.00
2023-11-20T23:30:22.776Z,11.10
2023-11-20T23:32:49.994Z,11.00
2023-11-20T23:35:16.892Z,11.00
2023-11-20T23:37:44.879Z,11.00
2023-11-20T23:40:12.890Z,11.00
2023-11-20T23:42:40.186Z,11.00
2023-11-20T23:45:15.815Z,11.00
2023-11-20T23:47:42.774Z,11.00
2023-11-20T23:50:10.992Z,11.00
2023-11-20T23:52:38.700Z,11.00
2023-11-20T23:55:09.026Z,11.00
2023-11-20T23:57:36.073Z,11.00
